createdAt,value
2019-01-23T00:01:09.037Z,62.70
2019-01-23T00:03:12.725Z,70.00
2019-01-23T00:05:16.495Z,71.50
2019-01-23T00:07:20.163Z,64.53
2019-01-23T00:09:23.870Z,68.50
2019-01-23T00:11:27.554Z,80.67
2019-01-23T00:13:31.350Z,67.50
2019-01-23T00:15:35.013Z,71.87
2019-01-23T00:17:38.727Z,73.47
2019-01-23T00:19:42.442Z,71.37
2019-01-23T00:21:46.108Z,79.40
2019-01-23T00:23:49.785Z,97.00
2019-01-23T00:25:53.461Z,104.33
2019-01-23T00:27:57.145Z,72.90
2019-01-23T00:30:00.813Z,64.27
2019-01-23T00:32:04.593Z,72.10
2019-01-23T00:34:08.277Z,72.47
2019-01-23T00:36:11.959Z,76.77
2019-01-23T00:38:15.669Z,70.93
2019-01-23T00:40:19.338Z,70.40
2019-01-23T00:42:23.005Z,80.57
2019-01-23T00:44:26.695Z,79.37
2019-01-23T00:46:30.354Z,75.00
2019-01-23T00:48:34.008Z,77.23
2019-01-23T00:50:37.718Z,64.23
2019-01-23T00:52:41.380Z,78.97
2019-01-23T00:54:45.063Z,69.00
2019-01-23T00:56:48.727Z,60.93
2019-01-23T00:58:52.612Z,65.63
2019-01-23T01:00:56.273Z,79.00
2019-01-23T01:02:59.949Z,73.97
2019-01-23T01:05:04.442Z,76.77
2019-01-23T01:07:08.117Z,81.23
2019-01-23T01:09:11.790Z,92.33
2019-01-23T01:11:15.555Z,65.40
2019-01-23T01:13:19.219Z,67.57
2019-01-23T01:15:22.918Z,71.13
2019-01-23T01:17:26.598Z,69.10
2019-01-23T01:19:30.255Z,67.90
2019-01-23T01:21:33.959Z,65.03
2019-01-23T01:23:37.627Z,69.27
2019-01-23T01:25:41.518Z,65.00
2019-01-23T01:27:45.514Z,66.13
2019-01-23T01:29:49.183Z,69.33
2019-01-23T01:31:52.887Z,65.53
2019-01-23T01:33:56.542Z,56.40
2019-01-23T01:36:00.249Z,63.57
2019-01-23T01:38:04.019Z,60.63
2019-01-23T01:40:12.446Z,61.67
2019-01-23T01:42:16.098Z,65.03
2019-01-23T01:44:19.753Z,61.43
2019-01-23T01:46:23.447Z,60.63
2019-01-23T01:48:27.116Z,61.67
2019-01-23T01:50:30.773Z,65.33
2019-01-23T01:52:34.484Z,64.87
2019-01-23T01:54:38.195Z,64.80
2019-01-23T01:56:41.956Z,63.57
2019-01-23T01:58:45.627Z,60.10
2019-01-23T02:00:49.314Z,67.20
2019-01-23T02:02:53.127Z,60.83
2019-01-23T02:04:56.800Z,58.70
2019-01-23T02:07:00.589Z,74.00
2019-01-23T02:09:07.027Z,61.77
2019-01-23T02:11:10.792Z,61.87
2019-01-23T02:13:14.533Z,62.30
2019-01-23T02:15:18.512Z,68.90
2019-01-23T02:17:22.191Z,60.93
2019-01-23T02:19:25.862Z,68.20
2019-01-23T02:21:29.528Z,64.80
2019-01-23T02:23:33.285Z,67.90
2019-01-23T02:25:36.932Z,63.67
2019-01-23T02:27:40.828Z,68.67
2019-01-23T02:29:44.563Z,64.07
2019-01-23T02:31:48.225Z,60.27
2019-01-23T02:33:51.921Z,70.03
2019-01-23T02:35:55.574Z,60.27
2019-01-23T02:37:59.295Z,59.17
2019-01-23T02:40:03.006Z,58.70
2019-01-23T02:42:06.710Z,63.90
2019-01-23T02:44:10.418Z,64.10
2019-01-23T02:46:14.182Z,58.60
2019-01-23T02:48:17.956Z,58.43
2019-01-23T02:50:21.620Z,59.73
2019-01-23T02:52:25.277Z,68.53
2019-01-23T02:54:28.989Z,63.50
2019-01-23T02:56:32.658Z,59.37
2019-01-23T02:58:36.341Z,59.30
2019-01-23T03:00:40.010Z,66.97
2019-01-23T03:02:43.759Z,63.90
2019-01-23T03:04:47.446Z,62.17
2019-01-23T03:06:51.099Z,64.73
2019-01-23T03:08:54.782Z,69.07
2019-01-23T03:10:58.442Z,64.17
2019-01-23T03:13:02.112Z,67.90
2019-01-23T03:15:08.913Z,71.73
2019-01-23T03:17:12.598Z,71.00
2019-01-23T03:19:16.395Z,68.20
2019-01-23T03:21:20.061Z,63.17
2019-01-23T03:23:23.734Z,66.00
2019-01-23T03:25:27.435Z,75.47
2019-01-23T03:27:31.098Z,75.83
2019-01-23T03:29:34.761Z,65.07
2019-01-23T03:31:38.546Z,65.23
2019-01-23T03:33:42.263Z,71.10
2019-01-23T03:35:46.025Z,68.77
2019-01-23T03:37:49.712Z,68.27
2019-01-23T03:39:53.396Z,77.93
2019-01-23T03:41:57.090Z,68.67
2019-01-23T03:44:00.863Z,78.23
2019-01-23T03:46:04.743Z,70.23
2019-01-23T03:48:08.404Z,68.63
2019-01-23T03:50:14.870Z,72.80
2019-01-23T03:52:18.532Z,77.20
2019-01-23T03:54:22.199Z,81.87
2019-01-23T03:56:25.892Z,90.87
2019-01-23T03:58:29.551Z,88.97
2019-01-23T04:00:33.221Z,81.77
2019-01-23T04:02:36.903Z,72.87
2019-01-23T04:04:40.555Z,73.93
2019-01-23T04:06:44.231Z,69.87
2019-01-23T04:08:47.904Z,73.53
2019-01-23T04:10:51.671Z,67.57
2019-01-23T04:12:55.384Z,74.40
2019-01-23T04:14:59.039Z,76.17
2019-01-23T04:17:02.730Z,84.47
2019-01-23T04:19:06.385Z,73.80
2019-01-23T04:21:10.078Z,74.10
2019-01-23T04:23:13.761Z,79.33
2019-01-23T04:25:17.514Z,80.73
2019-01-23T04:27:21.177Z,75.90
2019-01-23T04:29:24.855Z,79.00
2019-01-23T04:31:28.518Z,72.07
2019-01-23T04:33:32.227Z,86.30
2019-01-23T04:35:35.896Z,85.97
2019-01-23T04:37:39.568Z,80.80
2019-01-23T04:39:43.330Z,75.37
2019-01-23T04:41:47.000Z,81.00
2019-01-23T04:43:50.737Z,80.57
2019-01-23T04:45:54.396Z,81.80
2019-01-23T04:47:58.086Z,80.13
2019-01-23T04:50:01.759Z,81.13
2019-01-23T04:52:07.009Z,77.80
2019-01-23T04:54:11.286Z,78.30
2019-01-23T04:56:14.953Z,80.70
2019-01-23T04:58:18.611Z,88.47
2019-01-23T05:00:26.626Z,81.63
2019-01-23T05:02:30.358Z,79.67
2019-01-23T05:04:34.046Z,86.93
2019-01-23T05:06:37.711Z,81.83
2019-01-23T05:08:41.373Z,87.43
2019-01-23T05:10:45.051Z,85.00
2019-01-23T05:12:48.737Z,86.03
2019-01-23T05:14:52.443Z,90.17
2019-01-23T05:16:56.110Z,83.10
2019-01-23T05:18:59.758Z,80.93
2019-01-23T05:21:03.537Z,82.67
2019-01-23T05:23:07.234Z,74.47
2019-01-23T05:25:11.824Z,86.80
2019-01-23T05:27:15.482Z,89.00
2019-01-23T05:29:19.223Z,85.23
2019-01-23T05:31:22.934Z,77.37
2019-01-23T05:33:26.592Z,82.57
2019-01-23T05:35:30.274Z,76.13
2019-01-23T05:37:33.943Z,77.60
2019-01-23T05:39:37.617Z,82.93
2019-01-23T05:41:41.326Z,89.43
2019-01-23T05:43:44.991Z,86.27
2019-01-23T05:45:48.758Z,87.50
2019-01-23T05:47:52.434Z,76.97
2019-01-23T05:49:56.195Z,86.47
2019-01-23T05:51:59.860Z,82.80
2019-01-23T05:54:03.532Z,84.50
2019-01-23T05:56:07.237Z,84.57
2019-01-23T05:58:10.897Z,77.87
2019-01-23T06:00:19.806Z,78.27
2019-01-23T06:02:23.519Z,75.03
2019-01-23T06:04:27.182Z,82.07
2019-01-23T06:06:30.943Z,79.23
2019-01-23T06:08:34.622Z,85.87
2019-01-23T06:10:38.281Z,80.67
2019-01-23T06:12:41.996Z,79.83
2019-01-23T06:14:45.656Z,80.40
2019-01-23T06:16:49.378Z,89.87
2019-01-23T06:18:53.044Z,94.50
2019-01-23T06:20:56.754Z,87.03
2019-01-23T06:23:00.444Z,89.67
2019-01-23T06:25:04.921Z,83.53
2019-01-23T06:27:08.608Z,89.20
2019-01-23T06:29:12.275Z,80.33
2019-01-23T06:31:15.929Z,86.90
2019-01-23T06:33:19.674Z,82.00
2019-01-23T06:35:23.347Z,92.23
2019-01-23T06:37:27.048Z,89.70
2019-01-23T06:39:30.724Z,85.47
2019-01-23T06:41:34.426Z,82.70
2019-01-23T06:43:38.100Z,93.53
2019-01-23T06:45:41.759Z,89.70
2019-01-23T06:47:46.082Z,87.37
2019-01-23T06:49:49.795Z,89.23
2019-01-23T06:51:53.458Z,87.27
2019-01-23T06:53:57.255Z,87.17
2019-01-23T06:56:00.942Z,85.90
2019-01-23T06:58:04.790Z,89.73
2019-01-23T07:00:19.514Z,75.23
2019-01-23T07:02:23.190Z,91.90
2019-01-23T07:04:26.869Z,80.47
2019-01-23T07:06:30.539Z,78.57
2019-01-23T07:08:34.222Z,89.20
2019-01-23T07:10:37.886Z,86.80
2019-01-23T07:12:41.556Z,82.67
2019-01-23T07:14:45.343Z,81.63
2019-01-23T07:16:48.998Z,77.50
2019-01-23T07:18:52.815Z,85.93
2019-01-23T07:20:56.478Z,87.23
2019-01-23T07:23:00.143Z,93.93
2019-01-23T07:25:04.647Z,89.83
2019-01-23T07:27:08.297Z,86.40
2019-01-23T07:29:12.005Z,91.80
2019-01-23T07:31:15.758Z,82.10
2019-01-23T07:33:19.414Z,90.13
2019-01-23T07:35:23.102Z,93.13
2019-01-23T07:37:26.821Z,103.10
2019-01-23T07:39:30.511Z,95.03
2019-01-23T07:41:34.201Z,95.17
2019-01-23T07:43:37.854Z,95.53
2019-01-23T07:45:41.550Z,97.20
2019-01-23T07:47:45.212Z,93.03
2019-01-23T07:49:49.059Z,102.47
2019-01-23T07:51:52.729Z,93.07
2019-01-23T07:53:56.394Z,96.93
2019-01-23T07:56:00.145Z,95.33
2019-01-23T07:58:04.123Z,96.07
2019-01-23T08:00:13.454Z,91.73
2019-01-23T08:02:17.151Z,93.80
2019-01-23T08:04:20.806Z,94.33
2019-01-23T08:06:24.504Z,91.30
2019-01-23T08:08:28.203Z,92.83
2019-01-23T08:10:31.891Z,98.07
2019-01-23T08:12:35.547Z,96.13
2019-01-23T08:14:39.360Z,87.83
2019-01-23T08:16:43.173Z,87.20
2019-01-23T08:18:46.806Z,85.90
2019-01-23T08:20:50.530Z,119.30
2019-01-23T08:22:54.220Z,115.23
2019-01-23T08:24:57.901Z,98.80
2019-01-23T08:27:07.017Z,90.70
2019-01-23T08:29:06.981Z,84.13
2019-01-23T08:31:10.651Z,86.53
2019-01-23T08:33:14.370Z,82.43
2019-01-23T08:35:18.828Z,87.43
2019-01-23T08:37:22.507Z,96.73
2019-01-23T08:39:26.181Z,94.93
2019-01-23T08:41:29.866Z,89.40
2019-01-23T08:43:33.587Z,95.40
2019-01-23T08:45:37.462Z,93.17
2019-01-23T08:47:41.284Z,90.07
2019-01-23T08:49:45.634Z,88.43
2019-01-23T08:51:49.385Z,92.43
2019-01-23T08:53:53.170Z,91.97
2019-01-23T08:55:56.835Z,89.57
2019-01-23T08:58:00.538Z,79.57
2019-01-23T09:00:07.171Z,84.33
2019-01-23T09:02:10.858Z,87.73
2019-01-23T09:04:14.704Z,78.60
2019-01-23T09:06:18.358Z,83.17
2019-01-23T09:08:22.050Z,90.03
2019-01-23T09:10:27.428Z,88.67
2019-01-23T09:12:31.101Z,100.57
2019-01-23T09:14:34.794Z,81.67
2019-01-23T09:16:38.521Z,86.93
2019-01-23T09:18:42.214Z,90.37
2019-01-23T09:20:45.870Z,81.20
2019-01-23T09:22:49.538Z,88.47
2019-01-23T09:24:53.334Z,85.10
2019-01-23T09:26:57.019Z,81.47
2019-01-23T09:29:00.741Z,93.73
2019-01-23T09:31:07.336Z,82.03
2019-01-23T09:33:34.835Z,91.90
2019-01-23T09:35:49.926Z,80.20
2019-01-23T09:37:59.467Z,89.00
2019-01-23T09:40:14.577Z,90.47
2019-01-23T09:42:23.823Z,86.77
2019-01-23T09:44:42.117Z,87.97
2019-01-23T09:47:10.081Z,88.47
2019-01-23T09:49:16.733Z,89.87
2019-01-23T09:51:41.534Z,80.53
2019-01-23T09:53:48.154Z,89.23
2019-01-23T09:55:51.838Z,91.20
2019-01-23T09:57:55.516Z,90.73
2019-01-23T09:59:59.210Z,88.37
2019-01-23T10:02:02.906Z,90.77
2019-01-23T10:04:06.633Z,94.60
2019-01-23T10:06:10.327Z,93.97
2019-01-23T10:08:13.993Z,90.77
2019-01-23T10:10:19.574Z,90.77
2019-01-23T10:12:23.356Z,89.77
2019-01-23T10:14:27.010Z,105.57
2019-01-23T10:16:30.700Z,97.80
2019-01-23T10:18:34.450Z,96.20
2019-01-23T10:20:38.137Z,94.70
2019-01-23T10:22:41.907Z,101.00
2019-01-23T10:24:45.576Z,96.33
2019-01-23T10:26:49.267Z,85.87
2019-01-23T10:28:52.938Z,103.27
2019-01-23T10:30:56.713Z,106.53
2019-01-23T10:33:00.447Z,90.50
2019-01-23T10:35:05.903Z,97.40
2019-01-23T10:37:09.598Z,91.20
2019-01-23T10:39:13.368Z,93.07
2019-01-23T10:41:17.051Z,88.20
2019-01-23T10:43:20.719Z,91.67
2019-01-23T10:45:24.386Z,93.63
2019-01-23T10:47:28.067Z,98.03
2019-01-23T10:49:31.734Z,92.67
2019-01-23T10:51:35.423Z,92.03
2019-01-23T10:53:39.075Z,92.77
2019-01-23T10:55:42.767Z,94.57
2019-01-23T10:57:53.365Z,101.93
2019-01-23T10:59:57.047Z,101.03
2019-01-23T11:02:00.734Z,103.00
2019-01-23T11:04:04.698Z,97.53
2019-01-23T11:06:08.558Z,109.87
2019-01-23T11:08:12.242Z,98.73
2019-01-23T11:10:24.058Z,104.13
2019-01-23T11:12:27.769Z,92.90
2019-01-23T11:14:31.506Z,87.43
2019-01-23T11:16:35.202Z,93.17
2019-01-23T11:18:38.890Z,91.77
2019-01-23T11:20:42.553Z,93.40
2019-01-23T11:22:46.256Z,96.03
2019-01-23T11:24:49.915Z,93.43
2019-01-23T11:26:53.574Z,92.57
2019-01-23T11:28:57.260Z,96.23
2019-01-23T11:31:00.917Z,88.37
2019-01-23T11:33:04.628Z,91.00
2019-01-23T11:35:09.983Z,94.27
2019-01-23T11:37:13.640Z,92.60
2019-01-23T11:39:17.338Z,97.87
2019-01-23T11:41:21.012Z,98.63
2019-01-23T11:43:24.698Z,94.53
2019-01-23T11:45:28.463Z,94.07
2019-01-23T11:47:32.237Z,105.07
2019-01-23T11:49:35.893Z,92.00
2019-01-23T11:51:39.596Z,98.23
2019-01-23T11:53:43.260Z,88.27
2019-01-23T11:55:46.950Z,87.30
2019-01-23T11:57:50.609Z,84.43
2019-01-23T11:59:54.296Z,84.50
2019-01-23T12:01:57.970Z,87.83
2019-01-23T12:04:01.648Z,88.00
2019-01-23T12:06:05.573Z,82.40
2019-01-23T12:08:09.241Z,82.37
2019-01-23T12:10:16.041Z,79.13
2019-01-23T12:12:19.784Z,79.27
2019-01-23T12:14:23.478Z,72.83
2019-01-23T12:16:27.233Z,87.53
2019-01-23T12:18:30.887Z,80.27
2019-01-23T12:20:34.564Z,83.40
2019-01-23T12:22:38.319Z,89.47
2019-01-23T12:24:42.011Z,91.83
2019-01-23T12:26:45.671Z,86.20
2019-01-23T12:28:49.342Z,85.63
2019-01-23T12:30:53.172Z,85.67
2019-01-23T12:32:56.824Z,86.33
2019-01-23T12:35:00.670Z,82.37
2019-01-23T12:37:04.386Z,98.03
2019-01-23T12:39:08.542Z,130.93
2019-01-23T12:41:12.271Z,127.93
2019-01-23T12:43:16.058Z,206.27
2019-01-23T12:45:22.642Z,115.53
2019-01-23T12:47:26.355Z,108.73
2019-01-23T12:49:30.028Z,105.23
2019-01-23T12:51:33.690Z,103.43
2019-01-23T12:53:37.388Z,120.43
2019-01-23T12:55:41.077Z,111.20
2019-01-23T12:57:44.790Z,104.80
2019-01-23T12:59:48.466Z,127.47
2019-01-23T13:01:52.418Z,117.47
2019-01-23T13:03:56.086Z,113.53
2019-01-23T13:05:59.743Z,121.13
2019-01-23T13:08:03.456Z,118.57
2019-01-23T13:10:10.050Z,117.67
2019-01-23T13:12:13.922Z,99.23
2019-01-23T13:14:17.582Z,96.00
2019-01-23T13:16:21.248Z,99.37
2019-01-23T13:18:24.997Z,95.63
2019-01-23T13:20:28.668Z,111.73
2019-01-23T13:22:33.644Z,104.50
2019-01-23T13:24:37.441Z,101.80
2019-01-23T13:26:41.111Z,89.53
2019-01-23T13:28:44.798Z,100.70
2019-01-23T13:30:48.483Z,108.37
2019-01-23T13:32:52.183Z,100.43
2019-01-23T13:34:55.865Z,103.70
2019-01-23T13:36:59.522Z,102.33
2019-01-23T13:39:04.355Z,101.63
2019-01-23T13:41:08.096Z,104.37
2019-01-23T13:43:11.770Z,85.53
2019-01-23T13:45:15.457Z,99.27
2019-01-23T13:47:19.235Z,104.47
2019-01-23T13:49:22.947Z,98.30
2019-01-23T13:51:26.625Z,111.87
2019-01-23T13:53:30.296Z,114.30
2019-01-23T13:55:33.994Z,98.37
2019-01-23T13:57:37.679Z,110.33
2019-01-23T13:59:41.362Z,106.20
2019-01-23T14:01:45.144Z,108.10
2019-01-23T14:03:50.787Z,108.53
2019-01-23T14:05:55.079Z,119.50
2019-01-23T14:07:58.741Z,108.10
2019-01-23T14:10:02.469Z,107.00
2019-01-23T14:12:06.159Z,104.63
2019-01-23T14:14:09.826Z,108.97
2019-01-23T14:16:13.625Z,111.10
2019-01-23T14:18:17.328Z,110.67
2019-01-23T14:20:21.025Z,112.97
2019-01-23T14:22:24.704Z,110.47
2019-01-23T14:24:28.379Z,122.33
2019-01-23T14:26:32.087Z,105.07
2019-01-23T14:28:36.837Z,104.20
2019-01-23T14:30:42.763Z,119.20
2019-01-23T14:32:46.440Z,111.73
2019-01-23T14:34:50.115Z,118.07
2019-01-23T14:36:54.095Z,121.23
2019-01-23T14:38:57.875Z,109.20
2019-01-23T14:41:01.567Z,113.53
2019-01-23T14:43:05.887Z,117.10
2019-01-23T14:45:17.007Z,111.60
2019-01-23T14:47:20.691Z,112.13
2019-01-23T14:49:24.364Z,108.70
2019-01-23T14:51:28.071Z,103.63
2019-01-23T14:53:31.759Z,100.53
2019-01-23T14:55:35.429Z,97.60
2019-01-23T14:57:39.317Z,93.97
2019-01-23T14:59:42.987Z,107.57
2019-01-23T15:01:46.679Z,98.97
2019-01-23T15:03:50.346Z,100.67
2019-01-23T15:05:54.035Z,98.83
2019-01-23T15:07:57.709Z,112.23
2019-01-23T15:10:01.367Z,98.37
2019-01-23T15:12:05.064Z,101.53
2019-01-23T15:14:08.805Z,94.30
2019-01-23T15:16:12.470Z,99.53
2019-01-23T15:18:16.154Z,94.30
2019-01-23T15:20:22.717Z,99.03
2019-01-23T15:22:26.407Z,103.00
2019-01-23T15:24:30.106Z,101.97
2019-01-23T15:26:33.875Z,102.10
2019-01-23T15:28:37.557Z,81.37
2019-01-23T15:30:41.219Z,84.93
2019-01-23T15:32:44.937Z,100.43
2019-01-23T15:34:48.643Z,92.73
2019-01-23T15:36:52.368Z,96.70
2019-01-23T15:38:56.074Z,102.03
2019-01-23T15:40:59.831Z,101.13
2019-01-23T15:43:03.539Z,107.07
2019-01-23T15:45:09.856Z,89.97
2019-01-23T15:47:13.516Z,95.43
2019-01-23T15:49:17.253Z,97.43
2019-01-23T15:51:21.111Z,99.10
2019-01-23T15:53:24.782Z,90.33
2019-01-23T15:55:28.461Z,93.23
2019-01-23T15:57:32.137Z,87.40
2019-01-23T15:59:35.967Z,88.77
2019-01-23T16:01:39.624Z,91.33
2019-01-23T16:03:43.316Z,94.60
2019-01-23T16:05:47.018Z,84.07
2019-01-23T16:07:50.675Z,92.43
2019-01-23T16:09:54.389Z,79.20
2019-01-23T16:11:58.034Z,88.63
2019-01-23T16:14:01.791Z,89.60
2019-01-23T16:16:05.483Z,80.97
2019-01-23T16:18:09.252Z,100.10
2019-01-23T16:20:13.931Z,90.43
2019-01-23T16:22:17.695Z,91.17
2019-01-23T16:24:21.367Z,90.07
2019-01-23T16:26:25.043Z,87.27
2019-01-23T16:28:28.835Z,109.97
2019-01-23T16:30:36.776Z,108.40
2019-01-23T16:32:40.453Z,211.37
2019-01-23T16:34:44.327Z,424.83
2019-01-23T16:36:48.099Z,1646.73
2019-01-23T16:38:52.200Z,1999.90
2019-01-23T16:40:55.976Z,214.17
2019-01-23T16:42:59.758Z,266.27
2019-01-23T16:45:05.134Z,177.77
2019-01-23T16:47:08.820Z,200.70
2019-01-23T16:49:12.499Z,480.43
2019-01-23T16:51:16.415Z,411.07
2019-01-23T16:53:20.083Z,137.87
2019-01-23T16:55:23.950Z,136.63
2019-01-23T16:57:27.722Z,88.43
2019-01-23T16:59:31.398Z,87.60
2019-01-23T17:01:35.104Z,100.37
2019-01-23T17:03:38.760Z,99.07
2019-01-23T17:05:42.419Z,83.40
2019-01-23T17:07:46.210Z,81.37
2019-01-23T17:09:49.871Z,80.50
2019-01-23T17:11:53.590Z,82.63
2019-01-23T17:13:57.252Z,83.03
2019-01-23T17:16:00.955Z,81.03
2019-01-23T17:18:04.828Z,90.30
2019-01-23T17:20:12.752Z,81.40
2019-01-23T17:22:16.486Z,117.57
2019-01-23T17:24:20.140Z,82.53
2019-01-23T17:26:23.789Z,75.40
2019-01-23T17:28:27.477Z,108.03
2019-01-23T17:30:31.144Z,86.57
2019-01-23T17:32:34.927Z,83.23
2019-01-23T17:34:38.584Z,93.83
2019-01-23T17:36:42.241Z,95.60
2019-01-23T17:38:45.909Z,97.17
2019-01-23T17:40:49.568Z,97.60
2019-01-23T17:42:53.255Z,100.07
2019-01-23T17:44:56.926Z,99.83
2019-01-23T17:47:00.870Z,97.87
2019-01-23T17:49:04.859Z,99.80
2019-01-23T17:51:08.537Z,129.90
2019-01-23T17:53:12.291Z,96.13
2019-01-23T17:55:18.877Z,103.00
2019-01-23T17:57:22.525Z,98.87
2019-01-23T17:59:26.204Z,90.90
2019-01-23T18:01:29.862Z,95.13
2019-01-23T18:03:33.536Z,88.27
2019-01-23T18:05:37.261Z,95.83
2019-01-23T18:07:40.915Z,93.70
2019-01-23T18:09:44.621Z,106.40
2019-01-23T18:11:48.282Z,100.83
2019-01-23T18:13:52.044Z,99.70
2019-01-23T18:15:56.474Z,101.47
2019-01-23T18:18:00.163Z,105.40
2019-01-23T18:20:05.744Z,111.10
2019-01-23T18:22:09.493Z,97.50
2019-01-23T18:24:13.289Z,105.70
2019-01-23T18:26:20.008Z,106.03
2019-01-23T18:28:23.775Z,103.43
2019-01-23T18:30:42.189Z,102.70
2019-01-23T18:32:45.932Z,93.63
2019-01-23T18:35:04.598Z,98.07
2019-01-23T18:37:13.886Z,101.57
2019-01-23T18:39:26.830Z,90.83
2019-01-23T18:41:39.526Z,97.73
2019-01-23T18:44:10.406Z,94.27
2019-01-23T18:46:26.151Z,104.13
2019-01-23T18:48:35.624Z,102.87
2019-01-23T18:50:57.349Z,99.67
2019-01-23T18:53:01.044Z,103.47
2019-01-23T18:55:07.521Z,105.77
2019-01-23T18:57:14.472Z,96.17
2019-01-23T18:59:18.154Z,96.77
2019-01-23T19:01:21.890Z,106.07
2019-01-23T19:03:25.572Z,109.90
2019-01-23T19:05:29.240Z,92.63
2019-01-23T19:07:33.635Z,93.70
2019-01-23T19:09:37.383Z,111.23
2019-01-23T19:11:41.054Z,104.47
2019-01-23T19:13:44.747Z,100.93
2019-01-23T19:15:48.413Z,88.17
2019-01-23T19:17:52.124Z,93.27
2019-01-23T19:19:55.806Z,94.63
2019-01-23T19:21:59.477Z,93.10
2019-01-23T19:24:03.355Z,94.47
2019-01-23T19:26:07.018Z,97.03
2019-01-23T19:28:10.752Z,88.53
2019-01-23T19:30:17.415Z,87.47
2019-01-23T19:32:21.216Z,110.20
2019-01-23T19:34:24.988Z,105.97
2019-01-23T19:36:28.680Z,98.13
2019-01-23T19:38:32.335Z,97.50
2019-01-23T19:40:36.003Z,93.57
2019-01-23T19:42:39.693Z,102.73
2019-01-23T19:44:44.649Z,99.30
2019-01-23T19:46:48.463Z,103.93
2019-01-23T19:48:52.271Z,93.00
2019-01-23T19:50:55.926Z,98.37
2019-01-23T19:52:59.703Z,93.17
2019-01-23T19:55:03.509Z,87.77
2019-01-23T19:57:08.635Z,97.63
2019-01-23T19:59:12.351Z,103.57
2019-01-23T20:01:16.025Z,94.13
2019-01-23T20:03:20.631Z,92.63
2019-01-23T20:05:25.724Z,91.93
2019-01-23T20:07:29.428Z,97.97
2019-01-23T20:09:33.176Z,98.13
2019-01-23T20:11:36.841Z,93.20
2019-01-23T20:13:40.658Z,93.90
2019-01-23T20:15:44.359Z,90.50
2019-01-23T20:17:48.112Z,93.97
2019-01-23T20:19:51.832Z,99.10
2019-01-23T20:21:55.498Z,97.73
2019-01-23T20:23:59.215Z,97.53
2019-01-23T20:26:02.947Z,92.77
2019-01-23T20:28:06.601Z,93.33
2019-01-23T20:30:19.250Z,94.33
2019-01-23T20:32:22.928Z,89.70
2019-01-23T20:34:26.627Z,107.70
2019-01-23T20:36:30.439Z,92.97
2019-01-23T20:38:34.110Z,101.43
2019-01-23T20:40:37.815Z,99.90
2019-01-23T20:42:41.871Z,95.33
2019-01-23T20:44:45.566Z,96.43
2019-01-23T20:46:49.373Z,99.83
2019-01-23T20:48:53.050Z,108.00
2019-01-23T20:50:56.758Z,92.83
2019-01-23T20:53:00.566Z,102.93
2019-01-23T20:55:05.069Z,93.67
2019-01-23T20:57:08.740Z,94.97
2019-01-23T20:59:12.423Z,95.70
2019-01-23T21:01:16.174Z,95.37
2019-01-23T21:03:19.933Z,104.60
2019-01-23T21:05:23.594Z,92.87
2019-01-23T21:07:27.285Z,94.87
2019-01-23T21:09:30.955Z,95.27
2019-01-23T21:11:34.655Z,92.47
2019-01-23T21:13:38.328Z,94.30
2019-01-23T21:15:42.018Z,99.27
2019-01-23T21:17:45.702Z,99.67
2019-01-23T21:19:49.390Z,93.90
2019-01-23T21:21:53.133Z,93.60
2019-01-23T21:23:56.837Z,91.73
2019-01-23T21:26:00.525Z,92.87
2019-01-23T21:28:04.566Z,93.63
2019-01-23T21:30:25.682Z,96.17
2019-01-23T21:32:29.411Z,98.23
2019-01-23T21:34:33.070Z,93.83
2019-01-23T21:36:36.763Z,98.70
2019-01-23T21:38:40.430Z,88.80
2019-01-23T21:40:44.119Z,93.83
2019-01-23T21:42:47.794Z,102.30
2019-01-23T21:44:51.461Z,87.20
2019-01-23T21:46:55.187Z,100.57
2019-01-23T21:48:58.954Z,96.53
2019-01-23T21:51:02.635Z,91.83
2019-01-23T21:53:06.333Z,97.53
2019-01-23T21:55:12.099Z,99.57
2019-01-23T21:57:15.769Z,93.53
2019-01-23T21:59:19.582Z,95.53
2019-01-23T22:01:23.264Z,96.13
2019-01-23T22:03:26.960Z,100.13
2019-01-23T22:05:30.723Z,96.47
2019-01-23T22:07:34.394Z,95.47
2019-01-23T22:09:38.081Z,82.70
2019-01-23T22:11:43.640Z,100.17
2019-01-23T22:13:47.123Z,84.37
2019-01-23T22:15:50.810Z,87.90
2019-01-23T22:17:54.503Z,94.77
2019-01-23T22:19:58.182Z,92.50
2019-01-23T22:22:01.846Z,87.97
2019-01-23T22:24:05.548Z,89.13
2019-01-23T22:26:09.210Z,91.63
2019-01-23T22:28:12.986Z,81.70
2019-01-23T22:30:19.406Z,76.30
2019-01-23T22:32:23.079Z,85.03
2019-01-23T22:34:26.779Z,101.67
2019-01-23T22:36:30.451Z,104.83
2019-01-23T22:38:34.140Z,176.07
2019-01-23T22:40:37.919Z,79.27
2019-01-23T22:42:41.584Z,73.90
2019-01-23T22:44:45.272Z,72.03
2019-01-23T22:46:48.978Z,77.97
2019-01-23T22:48:52.691Z,77.83
2019-01-23T22:50:56.398Z,69.77
2019-01-23T22:53:00.956Z,66.13
2019-01-23T22:55:07.016Z,71.63
2019-01-23T22:57:10.686Z,79.17
2019-01-23T22:59:14.382Z,75.70
2019-01-23T23:01:20.446Z,75.30
2019-01-23T23:03:24.117Z,67.57
2019-01-23T23:05:27.903Z,69.43
2019-01-23T23:07:31.613Z,71.10
2019-01-23T23:09:35.272Z,73.53
2019-01-23T23:11:38.974Z,70.00
2019-01-23T23:13:42.640Z,73.47
2019-01-23T23:15:46.744Z,68.37
2019-01-23T23:17:50.394Z,76.77
2019-01-23T23:19:54.064Z,80.93
2019-01-23T23:21:57.764Z,72.57
2019-01-23T23:24:01.433Z,71.53
2019-01-23T23:26:05.320Z,71.63
2019-01-23T23:28:08.999Z,78.33
2019-01-23T23:30:17.914Z,77.77
2019-01-23T23:32:21.615Z,69.83
2019-01-23T23:34:25.298Z,74.23
2019-01-23T23:36:28.962Z,80.30
2019-01-23T23:38:32.690Z,69.90
2019-01-23T23:40:36.366Z,71.93
2019-01-23T23:42:40.096Z,80.90
2019-01-23T23:44:43.742Z,77.37
2019-01-23T23:46:47.398Z,75.13
2019-01-23T23:48:51.112Z,86.77
2019-01-23T23:50:54.775Z,69.30
2019-01-23T23:52:58.621Z,75.80
2019-01-23T23:55:02.288Z,78.10
2019-01-23T23:57:06.014Z,87.80
2019-01-23T23:59:09.725Z,86.93
